Time;durP1;ratioP1;P1;durP2;ratioP2;P2;SDS_P1;SDS_P2;PMS_P1;PMS_P2;Temp;Humidity;BMP_temperature;BMP_pressure;BME280_temperature;BME280_humidity;BME280_pressure;Samples;Min_cycle;Max_cycle;Signal;HPM_P1;HPM_P2
2022/10/25 00:01:46;;;;;;;;;;;;;;;-144.99;100.00;52448.09;5066571;28;19966;-77
2022/10/25 00:04:13;;;;;;;;;;;;;;;-144.99;100.00;52448.09;5066891;28;19932;-78
2022/10/25 00:06:40;;;;;;;;;;;;;;;-144.99;100.00;52427.72;5081464;28;19961;-78
2022/10/25 00:09:06;;;;;;;;;;;;;;;-144.99;100.00;52456.25;5067410;28;19928;-77
2022/10/25 00:11:33;;;;;;;;;;;;;;;-144.99;100.00;52441.97;5067634;28;19952;-76
2022/10/25 00:14:01;;;;;;;;;;;;;;;-144.99;100.00;52427.72;5067077;28;19946;-79
2022/10/25 00:16:29;;;;;;;;;;;;;;;-144.99;100.00;52441.97;5067973;28;19943;-75
2022/10/25 00:18:56;;;;;;;;;;;;;;;-144.99;100.00;52464.41;5067272;28;20368;-76
2022/10/25 00:21:22;;;;;;;;;;;;;;;-144.99;100.00;52462.34;5067859;28;19942;-74
2022/10/25 00:23:50;;;;;;;;;;;;;;;-144.99;100.00;52435.88;5061572;28;19939;-76
2022/10/25 00:26:17;;;;;;;;;;;;;;;-144.99;100.00;52460.31;5066709;28;19943;-75
2022/10/25 00:28:43;;;;;;;;;;;;;;;-144.99;100.00;52456.25;5070508;28;19969;-78
2022/10/25 00:31:12;;;;;;;;;;;;;;;-144.99;100.00;52419.56;5068176;28;19989;-78
2022/10/25 00:33:39;;;;;;;;;;;;;;;-144.99;100.00;52431.78;5066698;28;19969;-79
2022/10/25 00:36:06;;;;;;;;;;;;;;;-144.99;100.00;52460.31;5067713;28;20428;-78
2022/10/25 00:38:32;;;;;;;;;;;;;;;-144.99;100.00;52458.28;5066522;28;19982;-77
2022/10/25 00:40:59;;;;;;;;;;;;;;;-144.99;100.00;52456.25;5070278;28;19942;-77
2022/10/25 00:43:32;;;;;;;;;;;;;;;-144.99;100.00;52427.72;5067203;28;19937;-78
2022/10/25 00:46:00;;;;;;;;;;;;;;;-144.99;100.00;52427.72;5059402;28;19943;-80
2022/10/25 00:48:28;;;;;;;;;;;;;;;-144.99;100.00;52439.94;5072860;28;20277;-79
2022/10/25 00:50:54;;;;;;;;;;;;;;;-144.99;100.00;52490.91;5074869;28;19960;-80
2022/10/25 00:53:23;;;;;;;;;;;;;;;-144.99;100.00;52423.63;5077584;28;19953;-79
2022/10/25 00:55:53;;;;;;;;;;;;;;;-144.99;100.00;52460.31;5084363;28;19952;-79
2022/10/25 00:58:21;;;;;;;;;;;;;;;-144.99;100.00;52427.72;5081678;28;20049;-79
2022/10/25 01:00:49;;;;;;;;;;;;;;;-144.99;100.00;52444.03;5069114;28;19951;-77
2022/10/25 01:03:16;;;;;;;;;;;;;;;-144.99;100.00;52403.25;5069603;28;20072;-77
2022/10/25 01:05:44;;;;;;;;;;;;;;;-144.99;100.00;52448.09;5099062;28;19976;-79
2022/10/25 01:08:11;;;;;;;;;;;;;;;-144.99;100.00;52435.88;5079069;28;19964;-80
2022/10/25 01:10:38;;;;;;;;;;;;;;;-144.99;100.00;52448.09;5067948;28;19955;-79
2022/10/25 01:13:04;;;;;;;;;;;;;;;-144.99;100.00;52433.81;5065143;28;19947;-80
2022/10/25 01:15:35;;;;;;;;;;;;;;;-144.99;100.00;52444.03;5072529;28;19954;-78
2022/10/25 01:18:05;;;;;;;;;;;;;;;-144.99;100.00;52441.97;5064736;28;19967;-79
2022/10/25 01:20:47;;;;;;;;;;;;;;;-144.99;100.00;52474.59;5069077;28;19939;-81
2022/10/25 01:23:27;;;;;;;;;;;;;;;-144.99;100.00;52468.47;5049740;28;19950;-79
2022/10/25 01:26:14;;;;;;;;;;;;;;;-144.99;100.00;52464.41;5062263;28;19941;-78
2022/10/25 01:28:49;;;;;;;;;;;;;;;-144.99;100.00;52427.72;5071136;28;19975;-79
2022/10/25 01:31:24;;;;;;;;;;;;;;;-144.99;100.00;52439.94;5070025;28;19965;-76
2022/10/25 01:33:55;;;;;;;;;;;;;;;-144.99;100.00;52460.31;5068095;28;19939;-76
2022/10/25 01:36:25;;;;;;;;;;;;;;;-144.99;100.00;52452.16;5070038;28;19946;-76
2022/10/25 01:38:55;;;;;;;;;;;;;;;-144.99;100.00;52407.31;5073829;28;20311;-75
2022/10/25 01:41:24;;;;;;;;;;;;;;;-144.99;100.00;52435.88;5069099;28;19939;-77
2022/10/25 01:43:57;;;;;;;;;;;;;;;-144.99;100.00;52444.03;5068674;28;20324;-76
2022/10/25 01:46:29;;;;;;;;;;;;;;;-144.99;100.00;52441.97;5068564;28;19943;-76
2022/10/25 01:48:58;;;;;;;;;;;;;;;-144.99;100.00;52444.03;5068739;28;20038;-76
2022/10/25 01:51:26;;;;;;;;;;;;;;;-144.99;100.00;52511.28;5074302;28;19961;-76
2022/10/25 01:53:52;;;;;;;;;;;;;;;-144.99;100.00;52488.84;5068320;28;19947;-76
2022/10/25 01:56:24;;;;;;;;;;;;;;;-144.99;100.00;52468.47;5078117;28;20036;-77
2022/10/25 01:58:57;;;;;;;;;;;;;;;-144.99;100.00;52439.94;5074034;28;19960;-73
2022/10/25 02:01:28;;;;;;;;;;;;;;;-144.99;100.00;52425.66;5071979;28;19950;-74
2022/10/25 02:03:58;;;;;;;;;;;;;;;-144.99;100.00;52419.56;5058233;28;19945;-75
2022/10/25 02:06:28;;;;;;;;;;;;;;;-144.99;100.00;52448.09;5083712;28;19942;-74
2022/10/25 02:08:59;;;;;;;;;;;;;;;-144.99;100.00;52468.47;5069441;28;19931;-77
2022/10/25 02:11:26;;;;;;;;;;;;;;;-144.99;100.00;52427.72;5072651;28;19955;-75
2022/10/25 02:13:58;;;;;;;;;;;;;;;-144.99;100.00;52421.59;5072504;28;19946;-74
2022/10/25 02:16:27;;;;;;;;;;;;;;;-144.99;100.00;52450.13;5072965;28;19945;-74
2022/10/25 02:18:55;;;;;;;;;;;;;;;-144.99;100.00;52421.59;5072598;28;20337;-73
2022/10/25 02:21:22;;;;;;;;;;;;;;;-144.99;100.00;52439.94;5072019;28;19964;-78
2022/10/25 02:23:50;;;;;;;;;;;;;;;-144.99;100.00;52441.97;5070359;28;19945;-76
2022/10/25 02:26:17;;;;;;;;;;;;;;;-144.99;100.00;52464.41;5078238;28;19928;-76
2022/10/25 02:28:44;;;;;;;;;;;;;;;-144.99;100.00;52423.63;5081642;28;20464;-75
2022/10/25 02:31:13;;;;;;;;;;;;;;;-144.99;100.00;52468.47;5071923;28;19931;-77
2022/10/25 02:33:43;;;;;;;;;;;;;;;-144.99;100.00;52444.03;5069026;28;19942;-78
2022/10/25 02:36:13;;;;;;;;;;;;;;;-144.99;100.00;52403.25;5070616;28;19945;-77
2022/10/25 02:38:39;;;;;;;;;;;;;;;-144.99;100.00;52429.75;5067889;28;20335;-79
2022/10/25 02:41:06;;;;;;;;;;;;;;;-144.99;100.00;52472.56;5070361;28;20052;-76
2022/10/25 02:43:32;;;;;;;;;;;;;;;-144.99;100.00;52456.25;5070437;28;20337;-77
2022/10/25 02:45:59;;;;;;;;;;;;;;;-144.99;100.00;52423.63;5088871;28;20341;-84
2022/10/25 02:48:25;;;;;;;;;;;;;;;-144.99;100.00;52456.25;5098732;28;19955;-83
2022/10/25 02:50:53;;;;;;;;;;;;;;;-144.99;100.00;52419.56;5077505;28;19962;-78
2022/10/25 02:53:19;;;;;;;;;;;;;;;-144.99;100.00;52484.78;5073144;28;19931;-78
2022/10/25 02:55:46;;;;;;;;;;;;;;;-144.99;100.00;52464.41;5069885;28;19935;-77
2022/10/25 02:58:12;;;;;;;;;;;;;;;-144.99;100.00;52464.41;5069378;28;19989;-77
2022/10/25 03:00:38;;;;;;;;;;;;;;;-144.99;100.00;52411.41;5055412;28;19943;-79
2022/10/25 03:03:05;;;;;;;;;;;;;;;-144.99;100.00;52444.03;5067919;28;19946;-74
2022/10/25 03:05:31;;;;;;;;;;;;;;;-144.99;100.00;52429.75;5070276;28;20028;-75
2022/10/25 03:07:59;;;;;;;;;;;;;;;-144.99;100.00;52431.78;5070588;28;19964;-73
2022/10/25 03:10:25;;;;;;;;;;;;;;;-144.99;100.00;52388.97;5072452;28;19962;-76
2022/10/25 03:12:51;;;;;;;;;;;;;;;-144.99;100.00;52456.25;5068995;28;19964;-72
2022/10/25 03:15:18;;;;;;;;;;;;;;;-144.99;100.00;52452.16;5067631;28;19945;-79
2022/10/25 03:17:44;;;;;;;;;;;;;;;-144.99;100.00;52425.66;5075276;28;19966;-75
2022/10/25 03:20:10;;;;;;;;;;;;;;;-144.99;100.00;52464.41;5069377;28;19924;-75
2022/10/25 03:22:37;;;;;;;;;;;;;;;-144.99;100.00;52429.75;5068441;28;19950;-75
2022/10/25 03:25:05;;;;;;;;;;;;;;;-144.99;100.00;52415.47;5069710;28;20041;-76
2022/10/25 03:27:32;;;;;;;;;;;;;;;-144.99;100.00;52488.84;5069393;28;19994;-78
2022/10/25 03:29:58;;;;;;;;;;;;;;;-144.99;100.00;52417.53;5100469;22;19969;-74
2022/10/25 03:32:24;;;;;;;;;;;;;;;-144.99;100.00;52419.56;5060530;28;19939;-75
2022/10/25 03:34:51;;;;;;;;;;;;;;;-144.99;100.00;52403.25;5069743;28;19966;-76
2022/10/25 03:37:17;;;;;;;;;;;;;;;-144.99;100.00;52437.91;5068534;28;19938;-74
2022/10/25 03:39:44;;;;;;;;;;;;;;;-144.99;100.00;52403.25;5077102;28;20459;-74
2022/10/25 03:42:12;;;;;;;;;;;;;;;-144.99;100.00;52450.13;5072520;28;20408;-77
2022/10/25 03:44:38;;;;;;;;;;;;;;;-144.99;100.00;52435.88;5093639;28;19942;-75
2022/10/25 03:47:05;;;;;;;;;;;;;;;-144.99;100.00;52472.56;5089613;28;19942;-75
2022/10/25 03:49:31;;;;;;;;;;;;;;;-144.99;100.00;52427.72;5063325;28;19994;-75
2022/10/25 03:51:58;;;;;;;;;;;;;;;-144.99;100.00;52468.47;5060952;28;20061;-74
2022/10/25 03:54:24;;;;;;;;;;;;;;;-144.99;100.00;52441.97;5062215;28;19938;-74
2022/10/25 03:56:51;;;;;;;;;;;;;;;-144.99;100.00;52464.41;5056869;28;20418;-75
2022/10/25 03:59:18;;;;;;;;;;;;;;;-144.99;100.00;52439.94;5058310;28;20352;-73
2022/10/25 04:01:45;;;;;;;;;;;;;;;-144.99;100.00;52448.09;5061695;28;20360;-73
2022/10/25 04:04:11;;;;;;;;;;;;;;;-144.99;100.00;52417.53;5061071;28;19946;-73
2022/10/25 04:06:38;;;;;;;;;;;;;;;-144.99;100.00;52460.31;5072603;28;19938;-73
2022/10/25 04:09:04;;;;;;;;;;;;;;;-144.99;100.00;52427.72;5066828;28;19961;-73
2022/10/25 04:11:31;;;;;;;;;;;;;;;-144.99;100.00;52456.25;5067335;28;20077;-72
2022/10/25 04:13:57;;;;;;;;;;;;;;;-144.99;100.00;52439.94;5068206;28;20781;-73
2022/10/25 04:16:25;;;;;;;;;;;;;;;-144.99;100.00;52431.78;5066959;28;20441;-73
2022/10/25 04:18:52;;;;;;;;;;;;;;;-144.99;100.00;52439.94;5067378;28;20332;-72
2022/10/25 04:21:20;;;;;;;;;;;;;;;-144.99;100.00;52452.16;5067320;28;19946;-74
2022/10/25 04:23:46;;;;;;;;;;;;;;;-144.99;100.00;52452.16;5064085;28;19976;-72
2022/10/25 04:26:16;;;;;;;;;;;;;;;-144.99;100.00;52423.63;5062833;28;20065;-74
2022/10/25 04:28:43;;;;;;;;;;;;;;;-144.99;100.00;52423.63;5059943;28;19955;-73
2022/10/25 04:31:09;;;;;;;;;;;;;;;-144.99;100.00;52444.03;5066171;28;19956;-75
2022/10/25 04:33:37;;;;;;;;;;;;;;;-144.99;100.00;52411.41;5066797;28;19985;-73
2022/10/25 04:36:04;;;;;;;;;;;;;;;-144.99;100.00;52435.88;5060248;28;20134;-76
2022/10/25 04:38:30;;;;;;;;;;;;;;;-144.99;100.00;52435.88;5066130;28;20035;-75
2022/10/25 04:40:57;;;;;;;;;;;;;;;-144.99;100.00;52423.63;5073813;28;20012;-76
2022/10/25 04:43:24;;;;;;;;;;;;;;;-144.99;100.00;52427.72;5081432;28;19954;-75
2022/10/25 04:45:51;;;;;;;;;;;;;;;-144.99;100.00;52427.72;5084071;28;19950;-73
2022/10/25 04:48:18;;;;;;;;;;;;;;;-144.99;100.00;52478.66;5067591;28;19925;-76
2022/10/25 04:50:46;;;;;;;;;;;;;;;-144.99;100.00;52458.28;5068455;28;20366;-78
2022/10/25 04:53:12;;;;;;;;;;;;;;;-144.99;100.00;52480.72;5054374;28;19982;-77
2022/10/25 04:55:39;;;;;;;;;;;;;;;-144.99;100.00;52439.94;5064892;28;19946;-77
2022/10/25 04:58:05;;;;;;;;;;;;;;;-144.99;100.00;52439.94;5061149;28;19971;-77
2022/10/25 05:00:32;;;;;;;;;;;;;;;-144.99;100.00;52439.94;5065559;28;19959;-77
2022/10/25 05:02:58;;;;;;;;;;;;;;;-144.99;100.00;52452.16;5066781;28;20240;-77
2022/10/25 05:05:25;;;;;;;;;;;;;;;-144.99;100.00;52448.09;5073321;28;19968;-77
2022/10/25 05:07:53;;;;;;;;;;;;;;;-144.99;100.00;52433.81;5074911;28;19981;-77
2022/10/25 05:10:20;;;;;;;;;;;;;;;-144.99;100.00;52427.72;5077891;28;19965;-78
2022/10/25 05:12:46;;;;;;;;;;;;;;;-144.99;100.00;52446.06;5074025;28;19973;-76
2022/10/25 05:15:13;;;;;;;;;;;;;;;-144.99;100.00;52448.09;5057253;28;19984;-78
2022/10/25 05:17:39;;;;;;;;;;;;;;;-144.99;100.00;52476.63;5073184;28;19941;-78
2022/10/25 05:20:06;;;;;;;;;;;;;;;-144.99;100.00;52452.16;5075191;28;20466;-77
2022/10/25 05:22:33;;;;;;;;;;;;;;;-144.99;100.00;52464.41;5080847;28;19989;-78
2022/10/25 05:25:01;;;;;;;;;;;;;;;-144.99;100.00;52448.09;5079986;28;19946;-78
2022/10/25 05:27:27;;;;;;;;;;;;;;;-144.99;100.00;52460.31;5071731;28;19967;-77
2022/10/25 05:29:53;;;;;;;;;;;;;;;-144.99;100.00;52460.31;5082316;28;19944;-77
2022/10/25 05:32:20;;;;;;;;;;;;;;;-144.99;100.00;52448.09;5087103;28;19982;-77
2022/10/25 05:34:46;;;;;;;;;;;;;;;-144.99;100.00;52435.88;5088820;28;19983;-76
2022/10/25 05:37:13;;;;;;;;;;;;;;;-144.99;100.00;52435.88;5086378;28;19973;-78
2022/10/25 05:39:39;;;;;;;;;;;;;;;-144.99;100.00;52423.63;5089101;27;19951;-77
2022/10/25 05:42:07;;;;;;;;;;;;;;;-144.99;100.00;52446.06;5094487;28;19964;-76
2022/10/25 05:44:34;;;;;;;;;;;;;;;-144.99;100.00;52431.78;5086636;27;19938;-78
2022/10/25 05:47:00;;;;;;;;;;;;;;;-144.99;100.00;52452.16;5082787;28;19940;-77
2022/10/25 05:49:27;;;;;;;;;;;;;;;-144.99;100.00;52415.47;5086960;28;19984;-77
2022/10/25 05:51:53;;;;;;;;;;;;;;;-144.99;100.00;52454.22;5074994;28;19982;-76
2022/10/25 05:54:22;;;;;;;;;;;;;;;-144.99;100.00;52439.94;5088436;28;19924;-78
2022/10/25 05:56:48;;;;;;;;;;;;;;;-144.99;100.00;52452.16;5087985;28;19946;-78
2022/10/25 05:59:16;;;;;;;;;;;;;;;-144.99;100.00;52435.88;5078602;28;20431;-77
2022/10/25 06:01:44;;;;;;;;;;;;;;;-144.99;100.00;52448.09;5067313;28;20387;-75
2022/10/25 06:04:11;;;;;;;;;;;;;;;-144.99;100.00;52448.09;5069773;28;20453;-78
2022/10/25 06:06:38;;;;;;;;;;;;;;;-144.99;100.00;52427.72;5080392;28;19951;-79
2022/10/25 06:09:05;;;;;;;;;;;;;;;-144.99;100.00;52439.94;5075023;28;19992;-78
2022/10/25 06:11:32;;;;;;;;;;;;;;;-144.99;100.00;52431.78;5071834;28;20304;-77
2022/10/25 06:13:59;;;;;;;;;;;;;;;-144.99;100.00;52454.22;5072899;28;20296;-76
2022/10/25 06:16:27;;;;;;;;;;;;;;;-144.99;100.00;52399.19;5065000;28;19942;-78
2022/10/25 06:18:53;;;;;;;;;;;;;;;-144.99;100.00;52452.16;5075922;28;19960;-79
2022/10/25 06:21:21;;;;;;;;;;;;;;;-144.99;100.00;52437.91;5072326;28;20344;-80
2022/10/25 06:23:48;;;;;;;;;;;;;;;-144.99;100.00;52427.72;5072132;28;20097;-78
2022/10/25 06:26:15;;;;;;;;;;;;;;;-144.99;100.00;52480.72;5060261;28;19950;-77
2022/10/25 06:28:42;;;;;;;;;;;;;;;-144.99;100.00;52399.19;5075295;28;20380;-76
2022/10/25 06:31:09;;;;;;;;;;;;;;;-144.99;100.00;52468.47;5071027;28;20054;-78
2022/10/25 06:33:38;;;;;;;;;;;;;;;-144.99;100.00;52407.31;5074967;28;19928;-78
2022/10/25 06:36:06;;;;;;;;;;;;;;;-144.99;100.00;52456.25;5076236;28;19944;-78
2022/10/25 06:38:33;;;;;;;;;;;;;;;-144.99;100.00;52423.63;5085620;28;19939;-78
2022/10/25 06:41:00;;;;;;;;;;;;;;;-144.99;100.00;52439.94;5092023;28;20389;-77
2022/10/25 06:43:26;;;;;;;;;;;;;;;-144.99;100.00;52439.94;5073158;28;20177;-78
2022/10/25 06:45:53;;;;;;;;;;;;;;;-144.99;100.00;52460.31;5072128;28;20010;-78
2022/10/25 06:48:19;;;;;;;;;;;;;;;-144.99;100.00;52444.03;5071993;28;20006;-79
2022/10/25 06:50:47;;;;;;;;;;;;;;;-144.99;100.00;52464.41;5081935;28;20052;-78
2022/10/25 06:53:14;;;;;;;;;;;;;;;-144.99;100.00;52423.63;5072562;28;20006;-79
2022/10/25 06:55:43;;;;;;;;;;;;;;;-144.99;100.00;52435.88;5074384;28;19935;-78
2022/10/25 06:58:10;;;;;;;;;;;;;;;-144.99;100.00;52499.06;5080046;28;19936;-77
2022/10/25 07:00:36;;;;;;;;;;;;;;;-144.99;100.00;52419.56;5079745;28;19924;-79
2022/10/25 07:03:03;;;;;;;;;;;;;;;-144.99;100.00;52456.25;5079966;28;20027;-77
2022/10/25 07:05:29;;;;;;;;;;;;;;;-144.99;100.00;52462.34;5078241;28;20299;-78
2022/10/25 07:07:57;;;;;;;;;;;;;;;-144.99;100.00;52456.25;5077178;28;19967;-77
2022/10/25 07:10:24;;;;;;;;;;;;;;;-144.99;100.00;52431.78;5075084;28;19998;-79
2022/10/25 07:12:50;;;;;;;;;;;;;;;-144.99;100.00;52497.00;5068565;28;19965;-78
2022/10/25 07:15:17;;;;;;;;;;;;;;;-144.99;100.00;52431.78;5066294;28;19976;-77
2022/10/25 07:17:43;;;;;;;;;;;;;;;-144.99;100.00;52399.19;5074202;28;20283;-79
2022/10/25 07:20:10;;;;;;;;;;;;;;;-144.99;100.00;52407.31;5075672;28;20013;-79
2022/10/25 07:22:37;;;;;;;;;;;;;;;-144.99;100.00;52452.16;5069597;28;20030;-78
2022/10/25 07:25:05;;;;;;;;;;;;;;;-144.99;100.00;52403.25;5073662;28;19972;-79
2022/10/25 07:27:32;;;;;;;;;;;;;;;-144.99;100.00;52401.22;5072383;28;19924;-78
2022/10/25 07:29:59;;;;;;;;;;;;;;;-144.99;100.00;52431.78;5076540;28;20081;-78
2022/10/25 07:32:25;;;;;;;;;;;;;;;-144.99;100.00;52444.03;5074284;28;19997;-78
2022/10/25 07:34:52;;;;;;;;;;;;;;;-144.99;100.00;52429.75;5087880;28;19926;-79
2022/10/25 07:37:18;;;;;;;;;;;;;;;-144.99;100.00;52452.16;5092375;27;19927;-78
2022/10/25 07:39:45;;;;;;;;;;;;;;;-144.99;100.00;52413.44;5078406;28;19960;-79
2022/10/25 07:42:13;;;;;;;;;;;;;;;-144.99;100.00;52429.75;5074693;28;19985;-78
2022/10/25 07:44:39;;;;;;;;;;;;;;;-144.99;100.00;52435.88;5077371;28;20098;-79
2022/10/25 07:47:06;;;;;;;;;;;;;;;-144.99;100.00;52419.56;5071310;28;19965;-77
2022/10/25 07:49:32;;;;;;;;;;;;;;;-144.99;100.00;52391.03;5079716;28;20006;-80
2022/10/25 07:51:59;;;;;;;;;;;;;;;-144.99;100.00;52427.72;5071510;28;19960;-78
2022/10/25 07:54:25;;;;;;;;;;;;;;;-144.99;100.00;52435.88;5075900;28;19971;-79
2022/10/25 07:56:52;;;;;;;;;;;;;;;-144.99;100.00;52417.53;5072763;28;19964;-79
2022/10/25 07:59:20;;;;;;;;;;;;;;;-144.99;100.00;52413.44;5073380;28;19952;-78
2022/10/25 08:01:47;;;;;;;;;;;;;;;-144.99;100.00;52415.47;5073618;28;19931;-79
2022/10/25 08:04:13;;;;;;;;;;;;;;;-144.99;100.00;52439.94;5065759;28;19924;-79
2022/10/25 08:06:40;;;;;;;;;;;;;;;-144.99;100.00;52393.06;5077288;28;19937;-80
2022/10/25 08:09:06;;;;;;;;;;;;;;;-144.99;100.00;52427.72;5070631;28;20437;-78
2022/10/25 08:11:33;;;;;;;;;;;;;;;-144.99;100.00;52407.31;5075656;28;19937;-78
2022/10/25 08:13:59;;;;;;;;;;;;;;;-144.99;100.00;52407.31;5064021;28;19943;-79
2022/10/25 08:16:27;;;;;;;;;;;;;;;-144.99;100.00;52370.63;5066672;28;19962;-78
2022/10/25 08:18:54;;;;;;;;;;;;;;;-144.99;100.00;52411.41;5073930;28;19960;-80
2022/10/25 08:21:20;;;;;;;;;;;;;;;-144.99;100.00;52403.25;5072311;28;19947;-78
2022/10/25 08:23:47;;;;;;;;;;;;;;;-144.99;100.00;52433.81;5072320;28;19977;-77
2022/10/25 08:26:13;;;;;;;;;;;;;;;-144.99;100.00;52439.94;5058842;28;19941;-78
2022/10/25 08:28:40;;;;;;;;;;;;;;;-144.99;100.00;52391.03;5077781;28;19961;-78
2022/10/25 08:31:07;;;;;;;;;;;;;;;-144.99;100.00;52407.31;5089967;28;19943;-79
2022/10/25 08:33:35;;;;;;;;;;;;;;;-144.99;100.00;52415.47;5092226;27;19940;-78
2022/10/25 08:36:02;;;;;;;;;;;;;;;-144.99;100.00;52403.25;5085821;27;20014;-77
2022/10/25 08:38:29;;;;;;;;;;;;;;;-144.99;100.00;52382.88;5072928;28;19950;-79
2022/10/25 08:40:59;;;;;;;;;;;;;;;-144.99;100.00;52374.72;5076057;28;19943;-77
2022/10/25 08:43:32;;;;;;;;;;;;;;;-144.99;100.00;52419.56;5079261;28;19930;-78
2022/10/25 08:46:00;;;;;;;;;;;;;;;-144.99;100.00;52419.56;5090992;28;19932;-77
2022/10/25 08:48:28;;;;;;;;;;;;;;;-144.99;100.00;52403.25;5084082;28;19926;-77
2022/10/25 08:50:59;;;;;;;;;;;;;;;-144.99;100.00;52372.69;5093552;27;19931;-77
2022/10/25 08:53:28;;;;;;;;;;;;;;;-144.99;100.00;52423.63;5080512;28;19943;-77
2022/10/25 08:55:55;;;;;;;;;;;;;;;-144.99;100.00;52407.31;5093588;27;19927;-76
2022/10/25 08:58:23;;;;;;;;;;;;;;;-144.99;100.00;52448.09;5093635;28;19940;-78
2022/10/25 09:00:50;;;;;;;;;;;;;;;-144.99;100.00;52382.88;5093555;27;19912;-77
2022/10/25 09:03:23;;;;;;;;;;;;;;;-144.99;100.00;52415.47;5092485;28;19929;-76
2022/10/25 09:05:55;;;;;;;;;;;;;;;-144.99;99.16;52364.53;5096580;27;19926;-78
2022/10/25 09:08:28;;;;;;;;;;;;;;;-144.99;96.57;52407.31;5093151;28;19935;-76
2022/10/25 09:10:59;;;;;;;;;;;;;;;-144.99;94.27;52370.63;5090112;28;19961;-79
2022/10/25 09:13:33;;;;;;;;;;;;;;;-144.99;92.40;52386.94;5087822;27;19939;-79
2022/10/25 09:16:05;;;;;;;;;;;;;;;-144.99;88.43;52336.00;5094359;27;19929;-77
2022/10/25 09:18:37;;;;;;;;;;;;;;;-144.99;87.75;52366.56;5089094;27;21097;-78
2022/10/25 09:21:07;;;;;;;;;;;;;;;-144.99;89.38;52427.72;5093978;27;19956;-77
2022/10/25 09:23:35;;;;;;;;;;;;;;;-144.99;88.67;52391.03;5091767;28;19941;-77
2022/10/25 09:26:03;;;;;;;;;;;;;;;-144.99;88.87;52372.69;5084827;28;19966;-79
2022/10/25 09:28:37;;;;;;;;;;;;;;;-144.99;86.23;52386.94;5087358;28;19936;-77
2022/10/25 09:31:04;;;;;;;;;;;;;;;-144.99;81.74;52354.34;5084006;22;20161;-80
2022/10/25 09:33:31;;;;;;;;;;;;;;;-144.99;81.63;52329.88;5066051;28;19951;-80
2022/10/25 09:35:58;;;;;;;;;;;;;;;-144.99;83.75;52374.72;5066332;28;20061;-81
2022/10/25 09:38:26;;;;;;;;;;;;;;;-144.99;84.64;52336.00;5067885;28;19935;-83
2022/10/25 09:40:57;;;;;;;;;;;;;;;-144.99;85.63;52374.72;5063146;28;19959;-80
2022/10/25 09:43:27;;;;;;;;;;;;;;;-144.99;85.06;52358.41;5056981;28;20019;-82
2022/10/25 09:45:55;;;;;;;;;;;;;;;-144.99;82.97;52358.41;5047503;28;20012;-81
2022/10/25 09:48:25;;;;;;;;;;;;;;;-144.99;81.81;52338.03;5054741;28;19938;-83
2022/10/25 09:50:55;;;;;;;;;;;;;;;-144.99;82.32;52382.88;5081915;28;20012;-82
2022/10/25 09:53:21;;;;;;;;;;;;;;;-144.99;80.54;52342.09;5074143;28;19983;-81
2022/10/25 09:55:50;;;;;;;;;;;;;;;-144.99;83.32;52423.63;5077681;28;19928;-83
2022/10/25 09:58:20;;;;;;;;;;;;;;;-144.99;86.11;52444.03;5065586;28;19951;-81
2022/10/25 10:00:47;;;;;;;;;;;;;;;-144.99;86.72;52374.72;5060414;28;19997;-81
2022/10/25 10:03:14;;;;;;;;;;;;;;;-144.99;83.38;52384.91;5069148;28;19978;-81
2022/10/25 10:05:42;;;;;;;;;;;;;;;-144.99;83.13;52374.72;5056390;28;20393;-81
2022/10/25 10:08:08;;;;;;;;;;;;;;;-144.99;84.06;52370.63;5065392;28;20006;-80
2022/10/25 10:10:35;;;;;;;;;;;;;;;-144.99;85.54;52421.59;5055245;28;20005;-81
2022/10/25 10:13:04;;;;;;;;;;;;;;;-144.99;85.93;52395.09;5058894;28;20055;-80
2022/10/25 10:15:37;;;;;;;;;;;;;;;-144.99;85.81;52415.47;5056669;28;19931;-81
2022/10/25 10:18:20;;;;;;;;;;;;;;;-144.99;85.07;52354.34;5058513;28;19964;-81
2022/10/25 10:20:55;;;;;;;;;;;;;;;-144.99;84.63;52366.56;5058881;28;19953;-81
2022/10/25 10:23:22;;;;;;;;;;;;;;;-144.99;85.88;52313.56;5063382;28;19937;-78
2022/10/25 10:25:49;;;;;;;;;;;;;;;-144.99;83.26;52423.63;5061789;28;19947;-79
2022/10/25 10:28:15;;;;;;;;;;;;;;;-144.99;84.14;52399.19;5050475;28;20041;-80
2022/10/25 10:30:52;;;;;;;;;;;;;;;-144.99;84.73;52358.41;5068143;28;20008;-81
2022/10/25 10:33:19;;;;;;;;;;;;;;;-144.99;81.90;52350.25;5085309;28;19981;-80
2022/10/25 10:35:46;;;;;;;;;;;;;;;-144.99;78.80;52350.25;5084856;28;19924;-80
2022/10/25 10:38:33;;;;;;;;;;;;;;;-144.99;79.07;52378.78;5076479;28;19941;-80
2022/10/25 10:41:13;;;;;;;;;;;;;;;-144.99;80.61;52323.75;5074175;28;20401;-81
2022/10/25 10:43:40;;;;;;;;;;;;;;;-144.99;81.84;52370.63;5072788;28;19982;-80
2022/10/25 10:46:10;;;;;;;;;;;;;;;-144.99;81.60;52366.56;5073177;28;20354;-79
2022/10/25 10:48:39;;;;;;;;;;;;;;;-144.99;80.01;52346.19;5079403;28;20011;-81
2022/10/25 10:51:05;;;;;;;;;;;;;;;-144.99;78.22;52362.50;5081388;28;20439;-81
2022/10/25 10:53:32;;;;;;;;;;;;;;;-144.99;78.21;52338.03;5067821;28;20443;-81
2022/10/25 10:56:00;;;;;;;;;;;;;;;-144.99;79.81;52366.56;5079516;28;19985;-78
2022/10/25 10:58:28;;;;;;;;;;;;;;;-144.99;78.23;52223.88;5059384;28;19939;-78
2022/10/25 11:00:57;;;;;;;;;;;;;;;-144.99;74.04;52354.34;5074876;28;19976;-81
2022/10/25 11:03:53;;;;;;;;;;;;;;;-144.99;72.17;52346.19;5085316;28;20053;-79
2022/10/25 11:06:25;;;;;;;;;;;;;;;-144.99;72.11;52287.06;5014663;28;20273;-82
2022/10/25 11:09:11;;;;;;;;;;;;;;;-144.99;70.01;52313.56;5062623;28;19955;-79
2022/10/25 11:11:38;;;;;;;;;;;;;;;-144.99;65.46;52154.59;5078053;28;19996;-82
2022/10/25 11:14:09;;;;;;;;;;;;;;;-144.99;59.29;52146.44;5076387;28;19959;-82
2022/10/25 11:16:42;;;;;;;;;;;;;;;-144.99;57.48;52142.38;5083440;28;20041;-81
2022/10/25 11:19:18;;;;;;;;;;;;;;;-144.99;55.62;52134.22;5080716;28;19948;-81
2022/10/25 11:21:53;;;;;;;;;;;;;;;-144.99;53.29;52174.97;5077186;28;20700;-83
2022/10/25 11:24:26;;;;;;;;;;;;;;;-144.99;52.11;52244.28;5067709;28;19972;-82
2022/10/25 11:26:57;;;;;;;;;;;;;;;-144.99;51.74;52250.38;5068793;28;19991;-79
2022/10/25 11:29:35;;;;;;;;;;;;;;;-144.99;51.19;52278.91;5070082;28;20366;-82
2022/10/25 11:32:05;;;;;;;;;;;;;;;-144.99;50.53;52105.69;5068729;28;20057;-79
2022/10/25 11:34:39;;;;;;;;;;;;;;;-144.99;50.66;52201.47;5087062;28;20061;-81
2022/10/25 11:37:15;;;;;;;;;;;;;;;-144.99;50.43;52311.53;5069769;28;20394;-81
2022/10/25 11:39:46;;;;;;;;;;;;;;;-144.99;49.10;52244.28;5078913;28;19973;-81
2022/10/25 11:42:28;;;;;;;;;;;;;;;-144.99;47.95;52069.00;5086584;28;20247;-80
2022/10/25 11:45:13;;;;;;;;;;;;;;;-144.99;45.77;52154.59;5071595;28;20633;-80
2022/10/25 11:47:43;;;;;;;;;;;;;;;-144.99;45.62;52073.06;5073867;28;20036;-80
2022/10/25 11:50:18;;;;;;;;;;;;;;;-144.99;44.24;52048.63;5088442;28;19965;-80
2022/10/25 11:52:58;;;;;;;;;;;;;;;-144.99;44.40;52052.69;5070264;28;19992;-80
2022/10/25 11:55:31;;;;;;;;;;;;;;;-144.99;45.04;52260.56;5091525;28;19935;-80
2022/10/25 11:58:05;;;;;;;;;;;;;;;-144.99;45.49;52289.13;5078147;28;19929;-83
2022/10/25 12:00:39;;;;;;;;;;;;;;;-144.99;46.44;52268.72;5076364;28;20476;-82
2022/10/25 12:03:17;;;;;;;;;;;;;;;-144.99;47.73;52115.88;5072796;28;20182;-81
2022/10/25 12:05:47;;;;;;;;;;;;;;;-144.99;47.77;52174.97;5070488;28;19935;-79
2022/10/25 12:08:22;;;;;;;;;;;;;;;-144.99;46.73;52105.69;5083006;28;20101;-80
2022/10/25 12:10:51;;;;;;;;;;;;;;;-144.99;44.70;52227.97;5099206;28;19957;-82
2022/10/25 12:13:20;;;;;;;;;;;;;;;-144.99;45.60;52256.50;5086408;28;19950;-81
2022/10/25 12:15:48;;;;;;;;;;;;;;;-144.99;46.81;52126.06;5065460;28;20469;-81
2022/10/25 12:18:16;;;;;;;;;;;;;;;-144.99;46.03;52174.97;5079609;28;19964;-78
2022/10/25 12:20:44;;;;;;;;;;;;;;;-144.99;46.01;52260.56;5075770;28;19956;-79
2022/10/25 12:23:13;;;;;;;;;;;;;;;-144.99;46.48;52248.34;5076812;28;20330;-80
2022/10/25 12:25:44;;;;;;;;;;;;;;;-144.99;47.65;52260.56;5070381;28;19960;-80
2022/10/25 12:28:13;;;;;;;;;;;;;;;-144.99;48.06;52195.34;5070576;28;19986;-84